Time;durP1;ratioP1;P1;durP2;ratioP2;P2;SDS_P1;SDS_P2;PMS_P1;PMS_P2;Temp;Humidity;BMP_temperature;BMP_pressure;BME280_temperature;BME280_humidity;BME280_pressure;Samples;Min_cycle;Max_cycle;Signal;HPM_P1;HPM_P2
2022/01/18 00:00:31;;;;;;;8.20;2.33;;;;;;;-0.89;72.35;101750.63;5057522;28;20495;-59
2022/01/18 00:03:00;;;;;;;5.93;1.83;;;;;;;-0.88;72.50;101754.91;5059070;28;20056;-59
2022/01/18 00:05:28;;;;;;;4.95;1.88;;;;;;;-0.88;72.51;101754.91;5063091;28;20064;-59
2022/01/18 00:07:57;;;;;;;6.90;2.20;;;;;;;-0.88;72.61;101748.94;5056183;28;20140;-59
2022/01/18 00:10:27;;;;;;;8.48;2.05;;;;;;;-0.89;72.74;101749.75;5055530;28;20060;-59
2022/01/18 00:13:08;;;;;;;7.22;2.33;;;;;;;-0.88;73.11;101752.38;5058805;28;20041;-59
2022/01/18 00:15:41;;;;;;;5.68;1.95;;;;;;;-0.87;72.95;101761.75;5064983;28;20114;-59
2022/01/18 00:18:13;;;;;;;4.95;2.13;;;;;;;-0.87;73.15;101769.41;5065376;28;20126;-59
2022/01/18 00:20:57;;;;;;;4.40;1.50;;;;;;;-0.86;73.20;101776.25;5056952;28;20044;-59
2022/01/18 00:23:25;;;;;;;6.47;1.95;;;;;;;-0.88;73.51;101780.38;5057120;28;20133;-59
2022/01/18 00:25:55;;;;;;;4.82;1.73;;;;;;;-0.88;73.32;101772.72;5057737;28;20066;-59
2022/01/18 00:28:24;;;;;;;4.97;1.52;;;;;;;-0.89;73.88;101763.34;5061144;28;20060;-59
2022/01/18 00:31:17;;;;;;;9.57;1.60;;;;;;;-0.89;74.18;101773.53;5057029;28;20082;-59
2022/01/18 00:33:56;;;;;;;5.15;2.20;;;;;;;-0.90;74.22;101771.78;5055187;28;20060;-59
2022/01/18 00:36:28;;;;;;;3.47;1.48;;;;;;;-0.88;74.48;101775.28;5065469;28;20094;-59
2022/01/18 00:38:57;;;;;;;7.13;1.77;;;;;;;-0.86;74.74;101773.69;5057183;28;20113;-59
2022/01/18 00:41:26;;;;;;;7.13;1.80;;;;;;;-0.86;75.39;101773.69;5058723;28;20071;-59
2022/01/18 00:43:55;;;;;;;4.65;1.52;;;;;;;-0.84;75.35;101772.09;5059446;28;20826;-59
2022/01/18 00:46:23;;;;;;;4.45;1.70;;;;;;;-0.84;75.21;101772.09;5058481;28;20465;-59
2022/01/18 00:48:55;;;;;;;6.95;1.58;;;;;;;-0.83;75.91;101781.50;5056660;28;20525;-59
2022/01/18 00:51:23;;;;;;;5.97;1.63;;;;;;;-0.82;75.53;101788.34;5059379;28;20505;-58
2022/01/18 00:53:50;;;;;;;5.03;1.70;;;;;;;-0.81;75.73;101792.63;5060003;28;20056;-59
2022/01/18 00:56:22;;;;;;;5.88;1.63;;;;;;;-0.80;75.56;101789.31;5062300;28;20055;-58
2022/01/18 00:58:51;;;;;;;5.18;1.65;;;;;;;-0.80;75.81;101783.31;5061784;28;20101;-59
2022/01/18 01:01:20;;;;;;;4.32;1.80;;;;;;;-0.80;76.31;101775.69;5057663;28;20498;-59
2022/01/18 01:03:48;;;;;;;6.82;1.55;;;;;;;-0.80;76.39;101779.13;5062846;28;20456;-58
2022/01/18 01:06:16;;;;;;;7.60;1.60;;;;;;;-0.81;76.85;101774.81;5057603;28;20044;-59
2022/01/18 01:08:44;;;;;;;7.15;1.63;;;;;;;-0.80;77.00;101771.47;5058968;28;20082;-59
2022/01/18 01:11:12;;;;;;;3.45;1.30;;;;;;;-0.79;77.20;101780.88;5054927;28;20059;-60
2022/01/18 01:13:43;;;;;;;4.78;1.67;;;;;;;-0.78;77.02;101804.66;5056787;28;20055;-59
2022/01/18 01:16:28;;;;;;;7.47;1.58;;;;;;;-0.77;77.78;101804.75;5058236;28;20048;-58
2022/01/18 01:19:11;;;;;;;4.60;1.30;;;;;;;-0.75;77.35;101810.78;5061555;28;20044;-59
2022/01/18 01:35:48;;;;;;;4.40;1.17;;;;;;;-0.77;78.57;101834.41;5045350;28;20416;-60
2022/01/18 01:44:02;;;;;;;7.07;1.50;;;;;;;-0.75;78.94;101836.25;5062866;28;20059;-59
2022/01/18 01:46:30;;;;;;;6.25;1.23;;;;;;;-0.76;79.28;101837.03;5059472;28;20171;-59
2022/01/18 01:49:00;;;;;;;7.20;1.60;;;;;;;-0.74;79.14;101839.66;5065965;28;20056;-59
2022/01/18 01:51:30;;;;;;;6.40;1.08;;;;;;;-0.74;79.22;101850.72;5059397;28;20276;-60
2022/01/18 01:54:01;;;;;;;3.00;1.15;;;;;;;-0.73;79.18;101860.13;5060449;28;20106;-59
2022/01/18 01:56:28;;;;;;;6.68;1.42;;;;;;;-0.70;79.36;101870.47;5063381;28;20060;-60
2022/01/18 01:58:56;;;;;;;7.88;1.20;;;;;;;-0.68;79.14;101870.56;5066045;28;20044;-58
2022/01/18 02:01:23;;;;;;;2.67;1.67;;;;;;;-0.68;79.13;101870.56;5065464;28;20039;-60
2022/01/18 02:03:51;;;;;;;2.90;0.90;;;;;;;-0.68;79.38;101866.34;5060618;28;20056;-60
2022/01/18 02:06:18;;;;;;;4.97;1.70;;;;;;;-0.67;79.21;101867.22;5059380;28;20078;-60
2022/01/18 02:08:46;;;;;;;4.93;1.42;;;;;;;-0.66;79.22;101869.84;5065901;28;20048;-60
2022/01/18 02:11:14;;;;;;;4.78;1.27;;;;;;;-0.68;79.56;101866.34;5057060;28;20052;-60
2022/01/18 02:13:42;;;;;;;5.63;1.67;;;;;;;-0.68;79.59;101868.91;5057691;28;20048;-59
2022/01/18 02:21:45;;;;;;;2.60;1.27;;;;;;;-0.68;79.55;101866.34;5059065;28;20121;-59
2022/01/18 02:21:52;;;;;;;4.93;1.65;;;;;;;-0.68;79.88;101881.63;5059580;28;20047;-59
2022/01/18 02:24:20;;;;;;;5.13;1.35;;;;;;;-0.67;80.02;101872.31;5058200;28;20052;-60
2022/01/18 02:26:48;;;;;;;5.53;1.50;;;;;;;-0.66;80.21;101887.69;5063431;28;20048;-58
2022/01/18 02:29:17;;;;;;;6.85;1.20;;;;;;;-0.66;79.87;101895.31;5062297;28;21214;-59
2022/01/18 02:31:44;;;;;;;6.22;1.30;;;;;;;-0.66;79.91;101895.31;5061110;28;20059;-60
2022/01/18 02:34:15;;;;;;;6.22;1.38;;;;;;;-0.66;79.81;101886.81;5061328;28;20064;-59
2022/01/18 02:36:42;;;;;;;5.32;1.63;;;;;;;-0.67;79.83;101891.00;5059843;28;20048;-59
2022/01/18 02:39:12;;;;;;;6.57;2.08;;;;;;;-0.66;80.12;101891.88;5060278;28;20072;-59
2022/01/18 02:41:40;;;;;;;2.70;1.02;;;;;;;-0.66;79.66;101897.88;5064544;28;20063;-59
2022/01/18 02:44:09;;;;;;;6.05;1.40;;;;;;;-0.65;80.03;101909.81;5061206;28;20052;-59
2022/01/18 02:46:38;;;;;;;5.93;1.52;;;;;;;-0.64;79.93;101909.00;5058881;28;20389;-59
2022/01/18 02:49:06;;;;;;;4.55;1.20;;;;;;;-0.64;79.94;101919.19;5061116;28;20106;-59
2022/01/18 02:51:34;;;;;;;3.90;1.00;;;;;;;-0.64;80.08;101914.09;5057492;28;20053;-59
2022/01/18 02:54:02;;;;;;;4.40;0.93;;;;;;;-0.64;80.13;101919.19;5058178;28;20508;-59
2022/01/18 02:56:36;;;;;;;2.83;0.85;;;;;;;-0.63;80.26;101915.84;5058186;28;20067;-60
2022/01/18 02:59:12;;;;;;;3.50;1.00;;;;;;;-0.63;80.14;101905.66;5064929;28;20087;-59
2022/01/18 03:04:24;;;;;;;4.07;0.98;;;;;;;-0.60;80.12;101914.28;5059678;28;20059;-59
2022/01/18 03:06:51;;;;;;;2.63;0.95;;;;;;;-0.61;80.10;101922.72;5057530;28;20401;-60
2022/01/18 03:09:18;;;;;;;3.25;0.98;;;;;;;-0.63;80.34;101915.84;5057597;28;20086;-59
2022/01/18 03:11:48;;;;;;;7.10;1.10;;;;;;;-0.63;80.41;101915.84;5064674;28;20050;-60
2022/01/18 03:14:15;;;;;;;4.28;1.00;;;;;;;-0.61;80.55;101917.63;5059844;28;20504;-59
2022/01/18 03:16:42;;;;;;;3.97;1.20;;;;;;;-0.61;80.57;101917.63;5057727;28;20052;-58
2022/01/18 03:19:09;;;;;;;4.20;1.15;;;;;;;-0.61;80.28;101920.16;5057112;28;20060;-58
2022/01/18 03:21:37;;;;;;;5.45;1.10;;;;;;;-0.61;80.55;101922.72;5058310;28;20052;-59
2022/01/18 03:24:20;;;;;;;5.72;0.88;;;;;;;-0.61;80.38;101933.78;5059651;28;20048;-58
2022/01/18 03:29:34;;;;;;;3.60;0.95;;;;;;;-0.62;80.67;101926.91;5059762;28;20175;-58
2022/01/18 03:32:01;;;;;;;4.50;1.15;;;;;;;-0.61;80.16;101937.97;5058800;28;20432;-59
2022/01/18 03:34:28;;;;;;;5.55;1.33;;;;;;;-0.63;80.59;101936.22;5058151;28;20517;-60
2022/01/18 03:36:56;;;;;;;6.57;1.30;;;;;;;-0.62;80.31;101942.19;5057153;28;20045;-60
2022/01/18 03:39:23;;;;;;;5.63;1.77;;;;;;;-0.64;80.54;101949.75;5059456;28;20045;-60
2022/01/18 03:41:55;;;;;;;5.57;1.35;;;;;;;-0.64;80.47;101954.84;5061319;28;20056;-60
2022/01/18 03:44:25;;;;;;;4.47;1.20;;;;;;;-0.64;80.38;101951.44;5061960;28;20155;-59
2022/01/18 03:46:53;;;;;;;3.80;0.98;;;;;;;-0.65;80.40;101953.09;5057247;28;20048;-59
2022/01/18 03:49:23;;;;;;;4.40;1.20;;;;;;;-0.63;80.58;101956.59;5056971;28;20626;-59
2022/01/18 03:51:50;;;;;;;6.28;1.13;;;;;;;-0.66;80.52;101966.63;5065019;28;20044;-59
2022/01/18 03:54:22;;;;;;;6.90;1.10;;;;;;;-0.67;80.65;101959.78;5062533;28;20101;-59
2022/01/18 03:56:51;;;;;;;4.07;1.15;;;;;;;-0.66;80.62;101966.63;5062594;28;20048;-59
2022/01/18 03:59:18;;;;;;;4.70;0.95;;;;;;;-0.65;80.66;101977.69;5062672;28;20048;-59
2022/01/18 04:01:45;;;;;;;4.72;1.00;;;;;;;-0.66;80.63;101975.94;5058797;28;20686;-59
2022/01/18 04:04:13;;;;;;;3.30;1.30;;;;;;;-0.68;81.00;101978.38;5060212;28;20060;-59
2022/01/18 04:06:40;;;;;;;5.85;2.03;;;;;;;-0.68;80.96;101978.38;5059836;28;20040;-59
2022/01/18 04:09:07;;;;;;;6.45;1.45;;;;;;;-0.69;80.75;101979.19;5061211;28;20060;-59
2022/01/18 04:11:34;;;;;;;5.07;1.73;;;;;;;-0.69;81.02;101986.81;5060855;28;20061;-59
2022/01/18 04:14:03;;;;;;;5.90;1.58;;;;;;;-0.70;81.07;101992.69;5062942;28;20052;-59
2022/01/18 04:16:40;;;;;;;4.72;1.50;;;;;;;-0.70;81.13;101994.38;5064715;28;20048;-60
2022/01/18 04:19:34;;;;;;;7.05;1.75;;;;;;;-0.71;80.84;101993.50;5059151;28;20448;-60
2022/01/18 04:27:29;;;;;;;5.78;1.65;;;;;;;-0.73;80.93;101997.63;5063537;28;20493;-59
2022/01/18 04:29:57;;;;;;;6.15;2.28;;;;;;;-0.74;81.07;102008.59;5057321;28;20052;-60
2022/01/18 04:32:24;;;;;;;4.95;2.13;;;;;;;-0.74;80.81;102012.81;5056197;28;20044;-59
2022/01/18 04:34:51;;;;;;;7.60;2.67;;;;;;;-0.76;81.00;102010.19;5062023;28;20056;-59
2022/01/18 04:37:18;;;;;;;4.82;2.05;;;;;;;-0.77;81.18;102012.63;5059243;28;20048;-60
2022/01/18 04:39:46;;;;;;;5.13;1.63;;;;;;;-0.78;81.05;102016.84;5059987;28;20057;-59
2022/01/18 04:42:18;;;;;;;6.93;1.80;;;;;;;-0.78;81.12;102027.03;5056881;28;20041;-60
2022/01/18 04:50:12;;;;;;;7.85;1.50;;;;;;;-0.82;81.45;102045.47;5057877;28;20079;-59
2022/01/18 04:52:39;;;;;;;6.82;1.67;;;;;;;-0.82;81.27;102055.66;5060110;28;20064;-60
2022/01/18 04:55:08;;;;;;;4.38;1.10;;;;;;;-0.82;81.41;102060.75;5060853;28;20090;-59
2022/01/18 04:57:54;;;;;;;5.95;1.35;;;;;;;-0.83;81.35;102068.28;5058504;28;20060;-59
2022/01/18 05:00:21;;;;;;;4.93;1.70;;;;;;;-0.84;81.23;102066.53;5055160;28;20094;-59
2022/01/18 05:02:50;;;;;;;5.28;1.00;;;;;;;-0.85;81.13;102073.31;5055215;28;20048;-60
2022/01/18 05:05:23;;;;;;;7.43;1.45;;;;;;;-0.86;81.36;102069.00;5057773;28;20052;-59
2022/01/18 05:07:52;;;;;;;9.82;1.60;;;;;;;-0.86;81.29;102063.03;5057506;28;20072;-59
2022/01/18 05:10:21;;;;;;;3.50;1.30;;;;;;;-0.87;81.58;102069.78;5054940;28;20107;-60
2022/01/18 05:12:51;;;;;;;5.32;1.40;;;;;;;-0.90;81.56;102072.16;5054689;28;20047;-60
2022/01/18 05:15:37;;;;;;;5.75;1.50;;;;;;;-0.90;81.47;102079.78;5060606;28;20160;-60
2022/01/18 05:21:10;;;;;;;5.13;1.15;;;;;;;-0.91;81.21;102080.56;5058543;28;20084;-59
2022/01/18 05:23:36;;;;;;;4.75;1.38;;;;;;;-0.91;81.54;102088.22;5058669;28;20059;-59
2022/01/18 05:26:03;;;;;;;4.45;1.40;;;;;;;-0.90;81.52;102091.63;5056296;28;20058;-59
2022/01/18 05:28:31;;;;;;;6.57;1.77;;;;;;;-0.91;81.27;102095.84;5066834;28;20078;-59
2022/01/18 05:30:58;;;;;;;5.03;1.35;;;;;;;-0.91;81.58;102097.53;5054458;28;20682;-60
2022/01/18 05:33:26;;;;;;;6.32;1.30;;;;;;;-0.92;81.45;102094.09;5054413;28;20131;-59
2022/01/18 05:35:54;;;;;;;3.83;1.40;;;;;;;-0.93;81.55;102102.53;5056617;28;20048;-59
2022/01/18 05:38:21;;;;;;;5.15;2.08;;;;;;;-0.93;81.67;102102.53;5058947;28;20068;-58
2022/01/18 05:40:49;;;;;;;7.85;1.58;;;;;;;-0.92;81.53;102104.28;5060856;28;20058;-60
2022/01/18 05:43:17;;;;;;;7.00;1.70;;;;;;;-0.94;81.64;102110.06;5055819;28;20045;-59
2022/01/18 05:45:44;;;;;;;7.85;2.60;;;;;;;-0.95;81.69;102114.28;5057694;28;20048;-59
2022/01/18 05:48:11;;;;;;;6.47;2.42;;;;;;;-0.95;81.79;102119.38;5055886;28;20056;-59
2022/01/18 05:50:39;;;;;;;12.35;2.80;;;;;;;-0.95;81.56;102124.47;5060322;28;20241;-59
2022/01/18 05:53:07;;;;;;;8.45;2.88;;;;;;;-0.94;81.69;102120.25;5062244;28;20048;-59
2022/01/18 05:55:34;;;;;;;10.15;3.08;;;;;;;-0.96;82.20;102127.78;5054806;28;20528;-59
2022/01/18 05:58:01;;;;;;;7.10;2.75;;;;;;;-0.96;81.77;102130.34;5056357;28;20044;-59
2022/01/18 06:00:30;;;;;;;11.48;2.65;;;;;;;-0.97;81.92;102131.13;5057082;28;20064;-60
2022/01/18 06:03:02;;;;;;;7.25;2.85;;;;;;;-0.98;82.11;102140.44;5055438;28;20116;-59
2022/01/18 06:08:16;;;;;;;7.00;2.58;;;;;;;-0.94;82.08;102149.13;5055232;28;20059;-59
2022/01/18 06:10:43;;;;;;;5.75;2.28;;;;;;;-0.94;82.09;102154.22;5054254;28;20994;-60
2022/01/18 06:13:10;;;;;;;7.97;2.80;;;;;;;-0.93;81.99;102150.00;5056830;28;20059;-59
2022/01/18 06:15:37;;;;;;;8.23;2.70;;;;;;;-0.91;81.82;102164.59;5060983;28;20048;-59
2022/01/18 06:18:05;;;;;;;5.63;1.90;;;;;;;-0.90;82.28;102173.97;5059324;28;20052;-59
2022/01/18 06:20:33;;;;;;;5.72;2.47;;;;;;;-0.90;82.19;102179.06;5062451;28;20374;-57
2022/01/18 06:23:00;;;;;;;7.65;2.03;;;;;;;-0.89;82.36;102185.94;5062497;28;20055;-60
2022/01/18 06:25:29;;;;;;;7.57;2.15;;;;;;;-0.85;82.25;102185.31;5057763;28;20474;-59
2022/01/18 06:27:56;;;;;;;7.13;2.10;;;;;;;-0.82;82.56;102185.50;5061430;28;20044;-59
2022/01/18 06:30:23;;;;;;;8.93;1.92;;;;;;;-0.78;82.22;102192.53;5058310;28;20393;-59
2022/01/18 06:32:50;;;;;;;5.57;2.05;;;;;;;-0.73;82.29;102187.72;5059710;28;20141;-60
2022/01/18 06:35:17;;;;;;;10.40;2.63;;;;;;;-0.70;82.25;102191.34;5060190;28;20052;-59
2022/01/18 06:37:45;;;;;;;10.80;2.80;;;;;;;-0.65;82.14;102197.56;5055338;28;20045;-59
2022/01/18 06:40:13;;;;;;;4.60;1.83;;;;;;;-0.59;82.01;102201.28;5056215;28;20058;-60
2022/01/18 06:42:42;;;;;;;7.65;2.65;;;;;;;-0.56;81.97;102197.25;5061663;28;20045;-59
2022/01/18 06:45:11;;;;;;;8.38;2.72;;;;;;;-0.52;81.86;102208.50;5060287;28;20056;-59
2022/01/18 06:47:39;;;;;;;8.10;3.00;;;;;;;-0.50;81.63;102219.69;5056789;28;20052;-58
2022/01/18 06:50:10;;;;;;;9.32;3.00;;;;;;;-0.48;81.51;102223.22;5058684;28;20135;-59
2022/01/18 06:52:37;;;;;;;8.70;3.00;;;;;;;-0.48;81.78;102225.75;5063619;28;20566;-59
2022/01/18 06:55:06;;;;;;;7.45;2.95;;;;;;;-0.44;81.49;102227.69;5056382;28;20060;-59
2022/01/18 06:57:33;;;;;;;9.75;3.03;;;;;;;-0.42;81.41;102233.75;5056241;28;20048;-59
2022/01/18 07:00:02;;;;;;;11.23;3.67;;;;;;;-0.42;81.64;102238.84;5058566;28;20189;-58
2022/01/18 07:02:29;;;;;;;9.07;3.00;;;;;;;-0.41;81.28;102238.94;5058230;28;20052;-55
2022/01/18 07:04:56;;;;;;;9.20;2.88;;;;;;;-0.39;81.45;102249.22;5056232;28;20068;-54
2022/01/18 07:07:24;;;;;;;10.98;2.85;;;;;;;-0.38;81.44;102258.63;5067782;28;20653;-54
2022/01/18 07:09:51;;;;;;;9.38;2.88;;;;;;;-0.36;81.29;102268.13;5068334;28;20056;-55
2022/01/18 07:12:18;;;;;;;8.57;2.60;;;;;;;-0.34;81.31;102260.56;5068598;28;20047;-56
2022/01/18 07:14:46;;;;;;;14.73;3.25;;;;;;;-0.32;81.37;102259.00;5062922;28;20056;-62
2022/01/18 07:17:14;;;;;;;12.75;3.17;;;;;;;-0.31;81.35;102255.66;5067155;28;20044;-56
2022/01/18 07:19:42;;;;;;;11.55;2.83;;;;;;;-0.31;81.14;102273.50;5066192;28;20053;-57
2022/01/18 07:22:09;;;;;;;8.02;3.03;;;;;;;-0.30;81.06;102275.25;5067304;28;20067;-58
2022/01/18 07:24:41;;;;;;;8.25;2.15;;;;;;;-0.29;81.11;102279.56;5073525;28;20055;-57
2022/01/18 07:27:11;;;;;;;11.32;3.00;;;;;;;-0.29;81.16;102284.66;5061663;28;20048;-58
2022/01/18 07:29:42;;;;;;;9.23;3.08;;;;;;;-0.28;81.29;102288.97;5061224;28;20456;-53
2022/01/18 07:32:10;;;;;;;10.90;3.63;;;;;;;-0.25;81.21;102290.81;5059515;28;20092;-52
2022/01/18 07:34:46;;;;;;;10.90;3.35;;;;;;;-0.24;81.01;102292.59;5057419;28;20049;-52
2022/01/18 07:37:13;;;;;;;10.15;2.95;;;;;;;-0.23;80.89;102295.22;5059492;28;20139;-53
2022/01/18 07:39:40;;;;;;;10.32;3.20;;;;;;;-0.20;81.15;102295.41;5055881;28;20055;-54
2022/01/18 07:42:08;;;;;;;11.88;3.30;;;;;;;-0.19;81.20;102292.06;5056125;28;20410;-57
2022/01/18 07:44:35;;;;;;;13.57;3.08;;;;;;;-0.17;81.27;102300.69;5057355;28;20072;-52
2022/01/18 07:47:03;;;;;;;10.27;2.67;;;;;;;-0.15;81.04;102300.78;5058902;28;20121;-55
2022/01/18 07:49:30;;;;;;;10.60;3.28;;;;;;;-0.16;80.96;102307.53;5056164;28;20056;-58
2022/01/18 07:51:58;;;;;;;10.98;3.20;;;;;;;-0.14;80.84;102317.81;5057154;28;20102;-58
2022/01/18 07:54:25;;;;;;;21.40;4.22;;;;;;;-0.15;80.75;102322.03;5056082;28;20045;-56
2022/01/18 07:56:52;;;;;;;8.05;3.28;;;;;;;-0.13;80.99;102317.91;5052895;28;20055;-57
2022/01/18 07:59:20;;;;;;;10.65;3.47;;;;;;;-0.10;81.03;102322.31;5054916;28;20045;-56
2022/01/18 08:01:47;;;;;;;14.77;4.15;;;;;;;-0.09;80.78;102330.06;5065120;28;20098;-54
2022/01/18 08:04:15;;;;;;;16.42;4.80;;;;;;;-0.06;80.94;102335.34;5058051;28;20044;-54
2022/01/18 08:06:42;;;;;;;16.88;3.88;;;;;;;-0.06;80.80;102340.44;5056990;28;20048;-56
2022/01/18 08:09:10;;;;;;;17.30;4.38;;;;;;;-0.04;80.94;102353.28;5062374;28;20090;-55
2022/01/18 08:11:37;;;;;;;10.25;3.95;;;;;;;-0.02;80.87;102357.69;5066585;28;20067;-55
2022/01/18 08:14:04;;;;;;;15.57;4.43;;;;;;;0.03;80.96;102367.31;5060194;28;20040;-58
2022/01/18 08:16:47;;;;;;;15.85;5.03;;;;;;;0.08;81.01;102366.78;5065123;28;20566;-56
2022/01/18 08:19:14;;;;;;;15.32;5.47;;;;;;;0.13;80.86;102369.59;5060598;28;20063;-57
2022/01/18 08:21:41;;;;;;;17.55;6.10;;;;;;;0.20;80.92;102376.84;5062720;28;20724;-54
2022/01/18 08:24:10;;;;;;;20.17;5.97;;;;;;;0.25;80.67;102377.97;5065790;28;20471;-56
2022/01/18 08:26:37;;;;;;;17.13;5.20;;;;;;;0.29;80.71;102375.72;5063414;28;20048;-60
2022/01/18 08:29:04;;;;;;;17.08;4.00;;;;;;;0.35;80.69;102385.38;5050435;28;20059;-55
2022/01/18 08:31:32;;;;;;;19.75;4.88;;;;;;;0.42;80.59;102381.53;5057012;28;20044;-59
2022/01/18 08:33:59;;;;;;;17.63;5.70;;;;;;;0.49;80.50;102384.53;5054483;28;20059;-55
2022/01/18 08:36:26;;;;;;;21.88;5.38;;;;;;;0.58;80.43;102382.53;5052073;28;20789;-59
2022/01/18 08:38:53;;;;;;;15.93;4.63;;;;;;;0.65;79.75;102390.53;5056086;28;20057;-57
2022/01/18 08:41:22;;;;;;;15.80;5.05;;;;;;;0.74;80.05;102396.19;5055850;28;20055;-54
2022/01/18 08:43:49;;;;;;;15.52;5.18;;;;;;;0.82;79.99;102395.81;5058738;28;20153;-59
2022/01/18 08:46:17;;;;;;;12.10;4.97;;;;;;;0.91;79.61;102395.47;5056664;28;20087;-57
2022/01/18 08:48:44;;;;;;;20.70;4.82;;;;;;;0.99;79.57;102399.34;5061432;28;20045;-55
2022/01/18 08:51:11;;;;;;;21.33;6.25;;;;;;;1.06;79.04;102401.47;5054307;28;20390;-55
2022/01/18 08:53:39;;;;;;;22.45;6.38;;;;;;;1.13;78.87;102397.59;5054625;28;20076;-54
2022/01/18 08:56:06;;;;;;;20.30;5.13;;;;;;;1.19;78.40;102414.13;5053876;28;20048;-59
2022/01/18 08:58:35;;;;;;;17.33;5.85;;;;;;;1.24;78.23;102416.94;5052261;28;20052;-53
2022/01/18 09:01:03;;;;;;;13.40;4.53;;;;;;;1.30;78.23;102416.41;5054220;28;20060;-56
2022/01/18 09:03:32;;;;;;;18.00;5.25;;;;;;;1.33;77.63;102421.69;5054700;28;20048;-54
2022/01/18 09:05:59;;;;;;;24.42;5.43;;;;;;;1.40;77.72;102423.78;5054011;28;20048;-54
2022/01/18 09:08:26;;;;;;;21.02;5.95;;;;;;;1.46;77.10;102436.91;5056497;28;20055;-54
2022/01/18 09:10:53;;;;;;;18.20;5.20;;;;;;;1.55;77.44;102432.28;5058231;28;20183;-55
2022/01/18 09:13:22;;;;;;;28.45;5.95;;;;;;;1.65;77.38;102442.25;5052311;28;20056;-56
2022/01/18 09:15:52;;;;;;;15.13;4.95;;;;;;;1.74;76.73;102436.75;5054187;28;20082;-56
2022/01/18 09:18:19;;;;;;;25.55;5.55;;;;;;;1.82;76.09;102433.81;5055270;28;20067;-55
2022/01/18 09:20:47;;;;;;;15.77;5.05;;;;;;;1.88;75.93;102440.94;5056858;28;20056;-56
2022/01/18 09:23:15;;;;;;;19.95;4.85;;;;;;;1.96;76.35;102438.78;5061155;28;20060;-55
2022/01/18 09:25:42;;;;;;;15.95;5.10;;;;;;;2.02;76.11;102440.00;5064870;28;20105;-55
2022/01/18 09:28:10;;;;;;;15.23;4.88;;;;;;;2.08;75.83;102454.78;5062661;28;20051;-55
2022/01/18 09:30:38;;;;;;;22.42;5.32;;;;;;;2.14;74.94;102462.81;5063641;28;20056;-55
2022/01/18 09:33:07;;;;;;;32.05;6.05;;;;;;;2.19;75.58;102453.72;5063760;28;20090;-54
2022/01/18 09:35:36;;;;;;;19.67;5.50;;;;;;;2.25;75.27;102451.47;5054460;28;20053;-58
2022/01/18 09:38:04;;;;;;;13.52;4.72;;;;;;;2.30;75.06;102452.59;5052945;28;20473;-57
2022/01/18 09:40:33;;;;;;;16.30;5.82;;;;;;;2.35;75.01;102451.16;5055136;28;20056;-60
2022/01/18 09:43:08;;;;;;;16.40;5.90;;;;;;;2.40;74.77;102459.94;5053909;28;20056;-59
2022/01/18 09:45:35;;;;;;;26.48;7.82;;;;;;;2.45;74.15;102461.06;5051978;28;20056;-58
2022/01/18 09:48:03;;;;;;;18.13;5.68;;;;;;;2.52;73.83;102460.56;5053060;28;20550;-57
2022/01/18 09:50:34;;;;;;;15.25;5.30;;;;;;;2.59;73.40;102453.19;5058416;28;20063;-52
2022/01/18 09:53:03;;;;;;;12.73;5.55;;;;;;;2.65;73.37;102456.09;5062536;28;20056;-54
2022/01/18 09:55:33;;;;;;;20.98;5.82;;;;;;;2.70;73.50;102447.84;5055329;28;20399;-51
2022/01/18 09:58:01;;;;;;;18.85;6.60;;;;;;;2.74;72.71;102451.44;5059657;28;20056;-54
2022/01/18 10:00:32;;;;;;;17.00;4.88;;;;;;;2.78;72.75;102453.38;5057033;28;20049;-56
2022/01/18 10:03:00;;;;;;;16.17;4.55;;;;;;;2.79;72.38;102450.00;5056234;28;20052;-56
2022/01/18 10:05:29;;;;;;;15.63;3.97;;;;;;;2.81;72.25;102456.06;5057410;28;20468;-51
2022/01/18 10:07:59;;;;;;;11.25;3.72;;;;;;;2.87;72.47;102458.06;5058635;28;20056;-57
2022/01/18 10:10:38;;;;;;;14.38;4.38;;;;;;;2.92;72.58;102466.84;5056807;28;20071;-58
2022/01/18 10:13:06;;;;;;;7.57;3.33;;;;;;;2.96;72.32;102461.09;5056278;28;20048;-55
2022/01/18 10:15:34;;;;;;;9.65;3.40;;;;;;;2.99;71.69;102469.81;5066409;28;20052;-58
2022/01/18 10:18:07;;;;;;;7.88;2.85;;;;;;;3.04;71.39;102467.47;5058006;28;20062;-56
2022/01/18 10:20:51;;;;;;;21.80;4.18;;;;;;;3.05;71.93;102464.97;5055136;28;20520;-51
2022/01/18 10:23:25;;;;;;;7.20;2.88;;;;;;;3.08;71.16;102471.94;5056512;28;20052;-53
2022/01/18 10:25:52;;;;;;;9.88;3.03;;;;;;;3.12;71.67;102472.19;5064427;28;20082;-51
2022/01/18 10:28:30;;;;;;;10.90;3.35;;;;;;;3.20;71.97;102479.38;5060107;28;20053;-52
2022/01/18 10:31:00;;;;;;;13.30;3.58;;;;;;;3.29;71.85;102484.94;5060507;28;20060;-49
2022/01/18 10:33:35;;;;;;;10.93;2.67;;;;;;;3.37;71.83;102473.38;5059954;28;20056;-58
2022/01/18 10:36:12;;;;;;;6.85;2.67;;;;;;;3.48;70.65;102479.91;5057550;28;20049;-53
2022/01/18 10:38:42;;;;;;;7.22;2.58;;;;;;;3.55;70.38;102478.50;5067453;28;20071;-59
2022/01/18 10:41:28;;;;;;;7.30;2.75;;;;;;;3.58;69.71;102479.53;5065893;28;20159;-60
2022/01/18 10:44:07;;;;;;;7.75;2.38;;;;;;;3.65;69.97;102466.22;5055598;28;20048;-57
2022/01/18 10:46:36;;;;;;;6.43;2.45;;;;;;;3.67;70.01;102472.31;5055271;28;20064;-57
2022/01/18 10:49:04;;;;;;;12.68;2.28;;;;;;;3.71;69.69;102473.34;5056221;28;20079;-58
2022/01/18 10:51:34;;;;;;;6.43;2.00;;;;;;;3.79;69.92;102474.56;5055703;28;20501;-59
2022/01/18 10:54:04;;;;;;;6.57;2.13;;;;;;;3.85;69.51;102479.09;5055875;28;20395;-54
2022/01/18 10:56:40;;;;;;;7.40;2.08;;;;;;;3.88;69.88;102484.38;5056593;28;20452;-51
2022/01/18 10:59:07;;;;;;;15.07;2.85;;;;;;;3.93;69.37;102482.91;5054089;28;20063;-47
2022/01/18 11:01:34;;;;;;;8.05;2.80;;;;;;;4.01;69.17;102481.56;5055746;28;20726;-52
2022/01/18 11:04:11;;;;;;;11.95;2.67;;;;;;;4.09;68.61;102488.81;5064510;28;20425;-51
2022/01/18 11:06:39;;;;;;;10.32;2.70;;;;;;;4.15;68.33;102485.63;5059984;28;20048;-48
2022/01/18 11:09:13;;;;;;;10.82;3.25;;;;;;;4.17;67.40;102472.91;5056573;28;20060;-47
2022/01/18 11:11:45;;;;;;;11.52;2.33;;;;;;;4.21;67.45;102475.69;5054885;28;20550;-51
2022/01/18 11:14:14;;;;;;;7.78;2.30;;;;;;;4.27;67.48;102470.81;5066802;28;20129;-47
2022/01/18 11:16:44;;;;;;;7.97;2.28;;;;;;;4.36;67.49;102465.22;5055621;28;20150;-56
2022/01/18 11:19:29;;;;;;;8.32;3.25;;;;;;;4.38;66.48;102451.63;5056504;28;20095;-56
2022/01/18 11:21:59;;;;;;;16.40;3.30;;;;;;;4.43;66.05;102442.44;5053870;28;20497;-55
2022/01/18 11:24:29;;;;;;;10.43;3.08;;;;;;;4.48;65.92;102454.59;5055276;28;20052;-56
2022/01/18 11:26:59;;;;;;;6.70;2.63;;;;;;;4.51;65.96;102445.34;5056296;28;20060;-55
2022/01/18 11:29:27;;;;;;;7.15;3.00;;;;;;;4.54;65.44;102445.47;5054724;28;20048;-55
2022/01/18 11:31:56;;;;;;;8.88;3.08;;;;;;;4.58;66.19;102452.47;5055713;28;20056;-53
2022/01/18 11:34:33;;;;;;;10.52;2.85;;;;;;;4.63;65.71;102450.13;5057690;28;20485;-57
2022/01/18 11:37:09;;;;;;;9.45;2.22;;;;;;;4.67;64.67;102459.72;5053524;28;20302;-56
2022/01/18 11:39:37;;;;;;;6.80;2.25;;;;;;;4.72;65.32;102455.69;5054736;28;20057;-56
2022/01/18 11:42:11;;;;;;;6.32;2.33;;;;;;;4.74;64.85;102464.31;5057085;28;20077;-56
2022/01/18 11:44:39;;;;;;;8.55;2.47;;;;;;;4.79;64.56;102461.94;5056138;28;20140;-56
2022/01/18 11:47:08;;;;;;;17.38;3.25;;;;;;;4.83;64.08;102468.97;5055967;28;20044;-53
2022/01/18 11:49:37;;;;;;;8.82;2.95;;;;;;;4.84;64.00;102474.19;5056441;28;20075;-56
2022/01/18 11:52:06;;;;;;;9.75;2.63;;;;;;;4.86;63.73;102463.97;5055744;28;20048;-57
2022/01/18 11:54:42;;;;;;;21.33;3.63;;;;;;;4.83;63.76;102459.56;5054698;28;20663;-55
2022/01/18 11:57:27;;;;;;;;;;;;;;;4.80;63.01;102456.88;5055901;28;20049;-54
2022/01/18 11:59:57;;;;;;;20.73;4.60;;;;;;;4.76;63.99;102465.25;5055381;28;19936;-52
2022/01/18 12:02:29;;;;;;;37.17;5.40;;;;;;;4.75;63.76;102455.81;5057325;28;20079;-52
2022/01/18 12:05:13;;;;;;;8.43;2.47;;;;;;;4.72;63.35;102450.53;5053436;28;20151;-57
2022/01/18 12:07:56;;;;;;;4.10;2.28;;;;;;;4.73;63.72;102467.72;5054519;28;20057;-56
2022/01/18 12:10:46;;;;;;;4.90;1.83;;;;;;;4.75;63.53;102466.09;5053228;28;20056;-58
2022/01/18 12:13:24;;;;;;;5.38;2.30;;;;;;;4.76;63.66;102472.97;5055229;28;20052;-59
2022/01/18 12:15:55;;;;;;;5.55;2.72;;;;;;;4.77;63.61;102461.88;5054269;28;20048;-59
2022/01/18 12:18:24;;;;;;;10.70;2.90;;;;;;;4.80;63.28;102449.16;5053324;28;20130;-58
2022/01/18 12:20:53;;;;;;;10.18;2.38;;;;;;;4.79;63.31;102449.97;5052316;28;20174;-59
2022/01/18 12:23:22;;;;;;;8.02;2.38;;;;;;;4.79;63.49;102457.69;5053244;28;20183;-58